createdAt,value
2023-11-12T00:00:41.332Z,5.69
2023-11-12T00:03:08.527Z,5.63
2023-11-12T00:05:35.886Z,5.61
2023-11-12T00:08:03.216Z,5.56
2023-11-12T00:10:30.246Z,5.62
2023-11-12T00:12:57.241Z,5.61
2023-11-12T00:15:24.283Z,5.64
2023-11-12T00:17:51.195Z,5.60
2023-11-12T00:20:19.285Z,5.63
2023-11-12T00:22:46.704Z,5.61
2023-11-12T00:25:15.154Z,5.61
2023-11-12T00:27:42.566Z,5.59
2023-11-12T00:30:10.718Z,5.67
2023-11-12T00:32:38.342Z,5.69
2023-11-12T00:35:06.918Z,5.72
2023-11-12T00:37:34.850Z,5.76
2023-11-12T00:40:01.760Z,5.70
2023-11-12T00:42:28.671Z,5.69
2023-11-12T00:44:57.132Z,5.65
2023-11-12T00:47:24.243Z,5.58
2023-11-12T00:49:51.332Z,5.50
2023-11-12T00:52:19.183Z,5.43
2023-11-12T00:54:46.342Z,5.38
2023-11-12T00:57:13.217Z,5.41
2023-11-12T00:59:40.343Z,5.37
2023-11-12T01:02:07.389Z,5.30
2023-11-12T01:04:34.363Z,5.22
2023-11-12T01:07:01.737Z,5.23
2023-11-12T01:09:29.847Z,5.20
2023-11-12T01:11:56.726Z,5.13
2023-11-12T01:14:24.409Z,5.10
2023-11-12T01:16:51.358Z,4.97
2023-11-12T01:19:18.309Z,4.89
2023-11-12T01:21:45.366Z,4.85
2023-11-12T01:24:12.483Z,4.76
2023-11-12T01:26:39.934Z,4.66
2023-11-12T01:29:07.134Z,4.55
2023-11-12T01:31:34.019Z,4.48
2023-11-12T01:34:01.629Z,4.45
2023-11-12T01:36:28.910Z,4.38
2023-11-12T01:38:56.012Z,4.26
2023-11-12T01:41:22.933Z,4.17
2023-11-12T01:43:50.209Z,4.17
2023-11-12T01:46:20.301Z,4.17
2023-11-12T01:48:49.111Z,4.22
2023-11-12T01:51:17.422Z,4.25
2023-11-12T01:53:44.624Z,4.28
2023-11-12T01:56:13.904Z,4.29
2023-11-12T01:58:41.769Z,4.31
2023-11-12T02:01:08.778Z,4.27
2023-11-12T02:03:37.536Z,4.21
2023-11-12T02:06:08.250Z,4.22
2023-11-12T02:08:37.260Z,4.19
2023-11-12T02:11:09.219Z,4.05
2023-11-12T02:13:43.593Z,3.92
2023-11-12T02:16:11.750Z,3.87
2023-11-12T02:18:38.837Z,3.74
2023-11-12T02:21:06.026Z,3.75
2023-11-12T02:23:38.048Z,3.72
2023-11-12T02:26:05.364Z,3.72
2023-11-12T02:28:32.261Z,3.64
2023-11-12T02:30:59.897Z,3.58
2023-11-12T02:33:29.213Z,3.55
2023-11-12T02:35:57.352Z,3.47
2023-11-12T02:38:25.392Z,3.44
2023-11-12T02:40:53.063Z,3.50
2023-11-12T02:43:21.273Z,3.46
2023-11-12T02:45:49.325Z,3.57
2023-11-12T02:48:16.439Z,3.60
2023-11-12T02:50:44.746Z,3.62
2023-11-12T02:53:13.592Z,3.65
2023-11-12T02:55:40.791Z,3.71
2023-11-12T02:58:07.756Z,3.69
2023-11-12T03:00:35.157Z,3.71
2023-11-12T03:03:03.315Z,3.68
2023-11-12T03:05:32.268Z,3.71
2023-11-12T03:07:59.831Z,3.74
2023-11-12T03:10:27.240Z,3.65
2023-11-12T03:12:55.538Z,3.70
2023-11-12T03:15:25.711Z,3.70
2023-11-12T03:17:53.116Z,3.63
2023-11-12T03:20:20.072Z,3.60
2023-11-12T03:22:48.132Z,3.58
2023-11-12T03:25:15.215Z,3.57
2023-11-12T03:27:42.458Z,3.55
2023-11-12T03:30:14.732Z,3.50
2023-11-12T03:32:41.886Z,3.52
2023-11-12T03:35:09.871Z,3.44
2023-11-12T03:37:36.842Z,3.45
2023-11-12T03:40:05.810Z,3.40
2023-11-12T03:42:33.334Z,3.36
2023-11-12T03:45:00.500Z,3.36
2023-11-12T03:47:27.533Z,3.39
2023-11-12T03:49:54.537Z,3.30
2023-11-12T03:52:21.596Z,3.31
2023-11-12T03:54:48.489Z,3.29
2023-11-12T03:57:15.988Z,3.18
2023-11-12T03:59:43.223Z,3.08
2023-11-12T04:02:10.385Z,3.03
2023-11-12T04:04:37.591Z,2.97
2023-11-12T04:07:04.973Z,2.92
2023-11-12T04:09:32.126Z,2.92
2023-11-12T04:11:59.270Z,2.90
2023-11-12T04:14:26.559Z,2.87
2023-11-12T04:16:53.438Z,2.88
2023-11-12T04:19:20.521Z,2.94
2023-11-12T04:21:49.046Z,2.95
2023-11-12T04:24:16.237Z,2.96
2023-11-12T04:26:43.538Z,2.95
2023-11-12T04:29:11.043Z,2.94
2023-11-12T04:31:38.152Z,2.92
2023-11-12T04:34:05.482Z,2.84
2023-11-12T04:36:36.999Z,2.80
2023-11-12T04:39:05.138Z,2.76
2023-11-12T04:41:32.165Z,2.80
2023-11-12T04:44:00.916Z,2.73
2023-11-12T04:46:29.312Z,2.59
2023-11-12T04:48:56.475Z,2.54
2023-11-12T04:51:23.753Z,2.49
2023-11-12T04:53:50.720Z,2.51
2023-11-12T04:56:17.757Z,2.45
2023-11-12T04:58:44.752Z,2.41
2023-11-12T05:01:11.609Z,2.40
2023-11-12T05:03:39.148Z,2.34
2023-11-12T05:06:06.888Z,2.27
2023-11-12T05:08:34.206Z,2.27
2023-11-12T05:11:01.236Z,2.25
2023-11-12T05:13:28.778Z,2.26
2023-11-12T05:15:55.893Z,2.23
2023-11-12T05:18:23.032Z,2.19
2023-11-12T05:20:50.379Z,2.18
2023-11-12T05:23:17.957Z,2.18
2023-11-12T05:25:46.700Z,2.19
2023-11-12T05:28:14.016Z,2.17
2023-11-12T05:30:41.109Z,2.19
2023-11-12T05:33:08.605Z,2.22
2023-11-12T05:35:35.607Z,2.18
2023-11-12T05:38:02.472Z,2.14
2023-11-12T05:40:30.829Z,2.14
2023-11-12T05:42:59.103Z,2.13
2023-11-12T05:45:26.148Z,2.15
2023-11-12T05:47:53.300Z,2.17
2023-11-12T05:50:20.509Z,2.21
2023-11-12T05:52:47.426Z,2.24
2023-11-12T05:55:15.139Z,2.27
2023-11-12T05:57:42.901Z,2.29
2023-11-12T06:00:13.909Z,2.31
2023-11-12T06:02:40.972Z,2.36
2023-11-12T06:05:08.770Z,2.41
2023-11-12T06:07:35.718Z,2.43
2023-11-12T06:10:03.076Z,2.50
2023-11-12T06:12:30.496Z,2.52
2023-11-12T06:15:11.536Z,2.57
2023-11-12T06:17:39.770Z,2.61
2023-11-12T06:20:08.372Z,2.63
2023-11-12T06:22:35.320Z,2.66
2023-11-12T06:25:02.425Z,2.69
2023-11-12T06:27:29.361Z,2.74
2023-11-12T06:29:56.287Z,2.79
2023-11-12T06:32:23.894Z,2.82
2023-11-12T06:34:50.808Z,2.85
2023-11-12T06:37:17.704Z,2.88
2023-11-12T06:39:45.252Z,2.93
2023-11-12T06:42:12.239Z,3.02
2023-11-12T06:44:40.272Z,3.05
2023-11-12T06:47:08.115Z,3.12
2023-11-12T06:49:35.054Z,3.24
2023-11-12T06:52:03.062Z,3.31
2023-11-12T06:54:30.220Z,3.35
2023-11-12T06:56:57.598Z,3.52
2023-11-12T06:59:24.610Z,3.65
2023-11-12T07:01:51.848Z,3.76
2023-11-12T07:04:19.266Z,3.88
2023-11-12T07:07:01.292Z,3.94
2023-11-12T07:09:35.447Z,4.03
2023-11-12T07:12:02.358Z,4.24
2023-11-12T07:14:29.221Z,4.30
2023-11-12T07:16:56.550Z,4.38
2023-11-12T07:19:24.139Z,4.49
2023-11-12T07:21:51.321Z,4.60
2023-11-12T07:24:19.042Z,4.75
2023-11-12T07:26:45.993Z,4.88
2023-11-12T07:29:16.391Z,5.03
2023-11-12T07:31:44.561Z,5.12
2023-11-12T07:34:11.587Z,5.21
2023-11-12T07:36:38.893Z,5.31
2023-11-12T07:39:06.266Z,5.36
2023-11-12T07:41:34.368Z,5.48
2023-11-12T07:44:01.569Z,5.60
2023-11-12T07:46:28.677Z,5.70
2023-11-12T07:48:55.688Z,5.81
2023-11-12T07:51:23.632Z,5.95
2023-11-12T07:53:52.475Z,6.04
2023-11-12T07:56:19.414Z,6.16
2023-11-12T07:58:47.489Z,6.32
2023-11-12T08:01:14.717Z,6.44
2023-11-12T08:03:41.697Z,6.61
2023-11-12T08:06:10.827Z,6.77
2023-11-12T08:08:38.483Z,6.93
2023-11-12T08:11:05.510Z,6.99
2023-11-12T08:13:32.441Z,7.11
2023-11-12T08:15:59.701Z,7.31
2023-11-12T08:18:27.290Z,7.45
2023-11-12T08:20:56.338Z,7.60
2023-11-12T08:23:23.483Z,7.73
2023-11-12T08:25:50.590Z,7.91
2023-11-12T08:28:22.758Z,8.01
2023-11-12T08:30:50.273Z,8.19
2023-11-12T08:33:17.252Z,8.27
2023-11-12T08:35:44.314Z,8.40
2023-11-12T08:38:11.505Z,8.52
2023-11-12T08:40:43.155Z,8.67
2023-11-12T08:43:14.514Z,8.78
2023-11-12T08:45:41.488Z,8.93
2023-11-12T08:48:08.544Z,9.03
2023-11-12T08:50:35.583Z,9.08
2023-11-12T08:53:03.313Z,9.12
2023-11-12T08:55:30.484Z,9.23
2023-11-12T08:57:57.656Z,9.38
2023-11-12T09:00:24.992Z,9.51
2023-11-12T09:02:52.607Z,9.57
2023-11-12T09:05:20.182Z,9.68
2023-11-12T09:07:48.168Z,9.69
2023-11-12T09:10:15.678Z,9.86
2023-11-12T09:12:42.552Z,9.88
2023-11-12T09:15:11.300Z,9.96
2023-11-12T09:17:38.801Z,9.84
2023-11-12T09:20:07.280Z,9.93
2023-11-12T09:22:34.845Z,10.01
2023-11-12T09:25:09.487Z,9.95
2023-11-12T09:27:40.165Z,9.90
2023-11-12T09:30:09.924Z,10.08
2023-11-12T09:32:40.253Z,10.30
2023-11-12T09:35:09.841Z,10.37
2023-11-12T09:37:36.940Z,10.46
2023-11-12T09:40:09.331Z,10.16
2023-11-12T09:42:39.932Z,10.23
2023-11-12T09:45:09.426Z,10.20
2023-11-12T09:47:52.829Z,10.46
2023-11-12T09:50:22.051Z,10.36
2023-11-12T09:52:51.005Z,10.37
2023-11-12T09:55:19.439Z,10.43
2023-11-12T09:57:47.493Z,10.47
2023-11-12T10:00:15.428Z,10.42
2023-11-12T10:02:42.382Z,10.36
2023-11-12T10:05:12.761Z,10.33
2023-11-12T10:07:40.004Z,10.39
2023-11-12T10:10:28.879Z,10.54
2023-11-12T10:12:56.608Z,10.37
2023-11-12T10:15:27.300Z,10.55
2023-11-12T10:17:58.494Z,10.66
2023-11-12T10:20:29.248Z,10.70
2023-11-12T10:22:56.423Z,10.75
2023-11-12T10:25:44.433Z,10.72
2023-11-12T10:28:12.980Z,10.79
2023-11-12T10:30:41.173Z,10.55
2023-11-12T10:33:21.993Z,10.46
2023-11-12T10:35:49.000Z,10.58
2023-11-12T10:38:19.851Z,10.80
2023-11-12T10:41:04.783Z,10.90
2023-11-12T10:43:32.520Z,11.01
2023-11-12T10:46:02.013Z,10.88
2023-11-12T10:48:36.854Z,10.91
2023-11-12T10:51:08.475Z,10.84
2023-11-12T10:53:39.031Z,10.92
2023-11-12T10:56:11.658Z,10.78
2023-11-12T10:58:39.045Z,10.84
2023-11-12T11:01:08.903Z,10.80
2023-11-12T11:03:36.315Z,10.86
2023-11-12T11:06:05.181Z,10.84
2023-11-12T11:08:32.911Z,10.89
2023-11-12T11:11:02.152Z,10.98
2023-11-12T11:13:29.640Z,11.13
2023-11-12T11:15:58.290Z,11.27
2023-11-12T11:18:34.508Z,11.34
2023-11-12T11:21:04.337Z,11.20
2023-11-12T11:23:43.795Z,11.18
2023-11-12T11:26:40.867Z,11.14
2023-11-12T11:29:17.141Z,11.09
2023-11-12T11:31:56.266Z,11.10
2023-11-12T11:34:40.673Z,11.23
2023-11-12T11:37:09.130Z,11.30
2023-11-12T11:39:37.016Z,11.37
2023-11-12T11:42:08.259Z,11.29
2023-11-12T11:44:47.340Z,11.26
2023-11-12T11:47:17.649Z,11.21
2023-11-12T11:50:00.329Z,11.34
2023-11-12T11:52:29.268Z,11.23
2023-11-12T11:55:09.921Z,11.26
2023-11-12T11:57:47.894Z,11.42
2023-11-12T12:00:18.148Z,11.43
2023-11-12T12:02:46.885Z,11.35
2023-11-12T12:05:16.807Z,11.47
2023-11-12T12:07:47.525Z,11.50
2023-11-12T12:10:28.331Z,11.56
2023-11-12T12:12:55.892Z,11.54
2023-11-12T12:15:23.046Z,11.53
2023-11-12T12:17:50.084Z,11.45
2023-11-12T12:20:17.463Z,11.40
2023-11-12T12:22:44.688Z,11.46
2023-11-12T12:25:12.114Z,11.56
2023-11-12T12:27:39.302Z,11.55
2023-11-12T12:30:09.438Z,11.53
2023-11-12T12:32:39.148Z,11.47
2023-11-12T12:35:08.171Z,11.47
2023-11-12T12:37:37.011Z,11.48
2023-11-12T12:40:18.701Z,11.53
2023-11-12T12:42:45.863Z,11.53
2023-11-12T12:45:20.609Z,11.48
2023-11-12T12:47:47.640Z,11.49
2023-11-12T12:50:27.553Z,11.51
2023-11-12T12:53:15.185Z,11.48
2023-11-12T12:55:45.289Z,11.42
2023-11-12T12:58:13.079Z,11.41
2023-11-12T13:00:42.401Z,11.39
2023-11-12T13:03:23.011Z,11.34
2023-11-12T13:05:51.507Z,11.29
2023-11-12T13:08:20.841Z,11.18
2023-11-12T13:10:50.014Z,11.12
2023-11-12T13:13:20.538Z,11.14
2023-11-12T13:15:51.038Z,11.17
2023-11-12T13:18:19.335Z,11.15
2023-11-12T13:20:47.019Z,11.10
2023-11-12T13:23:14.168Z,11.14
2023-11-12T13:25:43.487Z,11.15
2023-11-12T13:28:13.350Z,11.23
2023-11-12T13:30:40.969Z,11.22
2023-11-12T13:33:09.216Z,11.12
2023-11-12T13:35:36.541Z,11.02
2023-11-12T13:38:03.777Z,11.07
2023-11-12T13:40:31.994Z,10.94
2023-11-12T13:42:59.046Z,11.00
2023-11-12T13:45:26.594Z,11.05
2023-11-12T13:47:55.822Z,11.11
2023-11-12T13:50:26.372Z,11.06
2023-11-12T13:53:00.161Z,11.03
2023-11-12T13:55:30.633Z,10.93
2023-11-12T13:58:01.480Z,11.00
2023-11-12T14:00:32.096Z,10.95
2023-11-12T14:03:02.554Z,10.86
2023-11-12T14:05:29.686Z,10.82
2023-11-12T14:07:57.710Z,10.74
2023-11-12T14:10:26.556Z,10.70
2023-11-12T14:12:54.268Z,10.66
2023-11-12T14:15:23.685Z,10.61
2023-11-12T14:17:50.945Z,10.58
2023-11-12T14:20:23.883Z,10.51
2023-11-12T14:22:52.498Z,10.46
2023-11-12T14:25:22.999Z,10.47
2023-11-12T14:27:51.143Z,10.38
2023-11-12T14:30:20.209Z,10.31
2023-11-12T14:32:47.755Z,10.20
2023-11-12T14:35:17.697Z,10.14
2023-11-12T14:37:45.546Z,10.10
2023-11-12T14:40:16.356Z,10.10
2023-11-12T14:42:43.751Z,9.98
2023-11-12T14:45:21.762Z,9.89
2023-11-12T14:47:56.151Z,9.77
2023-11-12T14:50:23.358Z,9.67
2023-11-12T14:52:52.381Z,9.53
2023-11-12T14:55:24.896Z,9.42
2023-11-12T14:57:56.633Z,9.24
2023-11-12T15:00:29.949Z,9.09
2023-11-12T15:03:01.921Z,8.90
2023-11-12T15:05:29.942Z,8.79
2023-11-12T15:07:57.192Z,8.63
2023-11-12T15:10:24.670Z,8.49
2023-11-12T15:12:52.446Z,8.37
2023-11-12T15:15:21.199Z,8.24
2023-11-12T15:17:49.040Z,8.16
2023-11-12T15:20:16.090Z,8.07
2023-11-12T15:22:45.605Z,7.96
2023-11-12T15:25:16.526Z,7.87
2023-11-12T15:27:47.657Z,7.78
2023-11-12T15:30:15.240Z,7.62
2023-11-12T15:32:46.591Z,7.39
2023-11-12T15:35:15.360Z,7.22
2023-11-12T15:37:42.801Z,7.00
2023-11-12T15:40:22.153Z,6.86
2023-11-12T15:42:51.283Z,6.82
2023-11-12T15:45:20.425Z,6.73
2023-11-12T15:47:48.733Z,6.68
2023-11-12T15:50:18.078Z,6.62
2023-11-12T15:52:46.105Z,6.55
2023-11-12T15:55:14.238Z,6.54
2023-11-12T15:57:42.844Z,6.49
2023-11-12T16:00:15.783Z,6.30
2023-11-12T16:02:44.387Z,5.97
2023-11-12T16:05:12.368Z,5.86
2023-11-12T16:07:41.920Z,5.70
2023-11-12T16:10:12.381Z,5.65
2023-11-12T16:12:40.224Z,5.57
2023-11-12T16:15:13.609Z,5.52
2023-11-12T16:17:42.013Z,5.45
2023-11-12T16:20:14.086Z,5.45
2023-11-12T16:22:41.503Z,5.46
2023-11-12T16:25:11.877Z,5.45
2023-11-12T16:27:42.148Z,5.46
2023-11-12T16:30:10.146Z,5.32
2023-11-12T16:32:39.824Z,5.17
2023-11-12T16:35:07.731Z,4.98
2023-11-12T16:37:34.802Z,4.72
2023-11-12T16:40:02.424Z,4.57
2023-11-12T16:42:29.972Z,4.54
2023-11-12T16:44:58.096Z,4.50
2023-11-12T16:47:25.309Z,4.41
2023-11-12T16:49:55.200Z,4.28
2023-11-12T16:52:22.293Z,4.23
2023-11-12T16:54:49.200Z,4.09
2023-11-12T16:57:16.128Z,4.00
2023-11-12T16:59:43.647Z,3.90
2023-11-12T17:02:12.379Z,3.83
2023-11-12T17:04:40.021Z,3.76
2023-11-12T17:07:12.589Z,3.70
2023-11-12T17:09:42.382Z,3.65
2023-11-12T17:12:09.429Z,3.62
2023-11-12T17:14:37.296Z,3.56
2023-11-12T17:17:04.527Z,3.49
2023-11-12T17:19:31.905Z,3.48
2023-11-12T17:21:59.420Z,3.43
2023-11-12T17:24:26.282Z,3.33
2023-11-12T17:26:53.394Z,3.24
2023-11-12T17:29:22.554Z,3.17
2023-11-12T17:31:51.915Z,3.14
2023-11-12T17:34:20.342Z,3.10
2023-11-12T17:36:48.168Z,3.05
2023-11-12T17:39:17.612Z,3.05
2023-11-12T17:41:48.998Z,3.05
2023-11-12T17:44:16.929Z,3.02
2023-11-12T17:46:46.373Z,3.02
2023-11-12T17:49:14.279Z,3.01
2023-11-12T17:51:42.871Z,3.06
2023-11-12T17:54:10.099Z,3.10
2023-11-12T17:56:37.491Z,3.11
2023-11-12T17:59:04.657Z,3.21
2023-11-12T18:01:31.637Z,3.22
2023-11-12T18:04:00.857Z,3.27
2023-11-12T18:06:28.383Z,3.29
2023-11-12T18:08:57.055Z,3.30
2023-11-12T18:11:24.257Z,3.29
2023-11-12T18:13:51.607Z,3.32
2023-11-12T18:16:21.524Z,3.41
2023-11-12T18:18:48.437Z,3.53
2023-11-12T18:21:16.848Z,3.59
2023-11-12T18:23:44.378Z,3.64
2023-11-12T18:26:11.399Z,3.60
2023-11-12T18:28:38.992Z,3.63
2023-11-12T18:31:07.076Z,3.58
2023-11-12T18:33:34.518Z,3.53
2023-11-12T18:36:01.505Z,3.50
2023-11-12T18:38:28.969Z,3.46
2023-11-12T18:40:56.203Z,3.48
2023-11-12T18:43:23.893Z,3.28
2023-11-12T18:45:54.934Z,3.27
2023-11-12T18:48:22.388Z,3.29
2023-11-12T18:50:52.061Z,3.32
2023-11-12T18:53:19.792Z,3.28
2023-11-12T18:55:46.809Z,3.24
2023-11-12T18:58:18.103Z,3.26
2023-11-12T19:00:46.017Z,3.22
2023-11-12T19:03:13.148Z,3.15
2023-11-12T19:05:40.202Z,2.92
2023-11-12T19:08:10.754Z,2.88
2023-11-12T19:10:38.735Z,2.98
2023-11-12T19:13:06.041Z,3.00
2023-11-12T19:15:33.062Z,2.96
2023-11-12T19:18:00.429Z,2.91
2023-11-12T19:20:27.720Z,2.85
2023-11-12T19:22:55.125Z,2.85
2023-11-12T19:25:22.273Z,2.74
2023-11-12T19:27:49.334Z,2.70
2023-11-12T19:30:17.306Z,2.62
2023-11-12T19:32:46.153Z,2.47
2023-11-12T19:35:17.116Z,2.43
2023-11-12T19:37:45.659Z,2.57
2023-11-12T19:40:18.290Z,2.71
2023-11-12T19:42:48.674Z,2.78
2023-11-12T19:45:17.921Z,2.84
2023-11-12T19:47:44.901Z,2.88
2023-11-12T19:50:12.925Z,2.85
2023-11-12T19:52:40.262Z,2.90
2023-11-12T19:55:12.893Z,2.95
2023-11-12T19:57:41.682Z,3.02
2023-11-12T20:00:12.129Z,3.07
2023-11-12T20:02:40.108Z,3.11
2023-11-12T20:05:08.169Z,3.14
2023-11-12T20:07:35.149Z,3.21
2023-11-12T20:10:04.037Z,3.26
2023-11-12T20:12:31.182Z,3.37
2023-11-12T20:14:58.163Z,3.45
2023-11-12T20:17:25.041Z,3.50
2023-11-12T20:19:52.116Z,3.55
2023-11-12T20:22:19.381Z,3.57
2023-11-12T20:24:47.373Z,3.63
2023-11-12T20:27:16.640Z,3.65
2023-11-12T20:29:44.917Z,3.67
2023-11-12T20:32:16.710Z,3.69
2023-11-12T20:34:46.970Z,3.71
2023-11-12T20:37:15.037Z,3.73
2023-11-12T20:39:42.259Z,3.71
2023-11-12T20:42:10.776Z,3.74
2023-11-12T20:44:40.934Z,3.72
2023-11-12T20:47:09.161Z,3.69
2023-11-12T20:49:36.287Z,3.70
2023-11-12T20:52:03.551Z,3.70
2023-11-12T20:54:30.535Z,3.68
2023-11-12T20:56:57.466Z,3.67
2023-11-12T20:59:28.220Z,3.65
2023-11-12T21:01:55.836Z,3.60
2023-11-12T21:04:22.973Z,3.59
2023-11-12T21:06:49.985Z,3.57
2023-11-12T21:09:16.960Z,3.53
2023-11-12T21:11:48.467Z,3.50
2023-11-12T21:14:16.512Z,3.48
2023-11-12T21:16:44.659Z,3.47
2023-11-12T21:19:11.892Z,3.46
2023-11-12T21:21:41.811Z,3.49
2023-11-12T21:24:10.507Z,3.51
2023-11-12T21:26:38.475Z,3.51
2023-11-12T21:29:05.592Z,3.50
2023-11-12T21:31:32.667Z,3.49
2023-11-12T21:33:59.884Z,3.45
2023-11-12T21:36:27.649Z,3.44
2023-11-12T21:38:54.531Z,3.45
2023-11-12T21:41:21.482Z,3.47
2023-11-12T21:43:48.614Z,3.48
2023-11-12T21:46:17.147Z,3.48
2023-11-12T21:48:44.460Z,3.48
2023-11-12T21:51:11.643Z,3.45
2023-11-12T21:53:39.144Z,3.43
2023-11-12T21:56:08.919Z,3.44
2023-11-12T21:58:36.660Z,3.42
2023-11-12T22:01:03.928Z,3.45
2023-11-12T22:03:31.342Z,3.44
2023-11-12T22:05:58.277Z,3.45
2023-11-12T22:08:25.127Z,3.43
2023-11-12T22:10:52.142Z,3.45
2023-11-12T22:13:20.059Z,3.47
2023-11-12T22:15:49.207Z,3.51
2023-11-12T22:18:16.271Z,3.53
2023-11-12T22:20:43.456Z,3.59
2023-11-12T22:23:12.383Z,3.59
2023-11-12T22:25:40.367Z,3.59
2023-11-12T22:28:07.926Z,3.58
2023-11-12T22:30:34.964Z,3.61
2023-11-12T22:33:01.913Z,3.60
2023-11-12T22:35:29.052Z,3.58
2023-11-12T22:37:56.283Z,3.60
2023-11-12T22:40:24.818Z,3.60
2023-11-12T22:42:53.708Z,3.59
2023-11-12T22:45:21.100Z,3.63
2023-11-12T22:47:48.434Z,3.65
2023-11-12T22:50:18.589Z,3.70
2023-11-12T22:52:45.839Z,3.77
2023-11-12T22:55:13.479Z,3.79
2023-11-12T22:57:41.507Z,3.84
2023-11-12T23:00:42.239Z,3.87
2023-11-12T23:03:12.175Z,3.92
2023-11-12T23:05:39.401Z,3.99
2023-11-12T23:08:08.915Z,4.05
2023-11-12T23:10:36.761Z,4.16
2023-11-12T23:13:04.688Z,4.24
2023-11-12T23:15:34.757Z,4.32
2023-11-12T23:18:02.153Z,4.40
2023-11-12T23:20:29.750Z,4.53
2023-11-12T23:22:56.802Z,4.63
2023-11-12T23:25:24.016Z,4.73
2023-11-12T23:27:50.994Z,4.81
2023-11-12T23:30:18.647Z,4.91
2023-11-12T23:32:46.156Z,4.92
2023-11-12T23:35:13.221Z,4.95
2023-11-12T23:37:40.133Z,5.00
2023-11-12T23:40:08.603Z,5.07
2023-11-12T23:42:35.720Z,5.10
2023-11-12T23:45:02.966Z,5.14
2023-11-12T23:47:30.099Z,5.17
2023-11-12T23:49:57.031Z,5.18
2023-11-12T23:52:24.329Z,5.21
2023-11-12T23:54:51.283Z,5.19
2023-11-12T23:57:18.506Z,5.21
2023-11-12T23:59:46.127Z,5.23
